AirNav   Everest Fuels
 
 1148 users online  

NH76 Mason Airfield
Mason, New Hampshire, USA

GOING TO MASON?


FAA INFORMATION EFFECTIVE 10 SEPTEMBER 2020

Location

FAA Identifier: NH76
Lat/Long: 42-43-44.3100N 071-47-03.2600W
42-43.738500N 071-47.054333W
42.7289750,-71.7842389
(estimated)
Elevation: 740 ft. / 226 m (estimated)
Variation: 16W (1995)
From city: 1 mile SW of MASON, NH
Time zone: UTC -4 (UTC -5 during Standard Time)
Zip code: 03048

Airport Operations

Airport use: Private use. Permission required prior to landing
Activation date: 03/2000
Control tower: no
ARTCC: BOSTON CENTER
FSS: BANGOR FLIGHT SERVICE STATION
Attendance: UNATNDD
Segmented circle: no

Airport Communications

WX ASOS at FIT (11 nm S): 135.175 (978-343-9121)
WX ASOS at AFN (11 nm NW): 135.875 (603-532-6195)
WX AWOS-3PT at ASH (12 nm E): 125.1 (603-578-0473)
WX ASOS at MHT (20 nm NE): 119.55 (603-621-1766)

Nearby radio navigation aids

VOR radial/distance  VOR name  Freq  Var
GDMr062/16.3GARDNER VOR/DME110.6014W
MHTr260/20.1MANCHESTER VOR/DME114.4015W
EENr114/22.7KEENE VORTAC109.4014W
LWMr284/30.4LAWRENCE VOR/DME112.5015W
CONr212/30.8CONCORD VOR/DME112.9015W

 
NDB name  Hdg/Dist  Freq  Var  ID
FITZY249/13.920915WMJ -- .---

Airport Services

Runway Information

Runway 15/33

Dimensions: 2700 x 100 ft. / 823 x 30 m
Surface: turf
RUNWAY 15  RUNWAY 33
Traffic pattern: leftleft

Airport Ownership and Management from official FAA records

Ownership: Privately-owned
Owner: MICHAEL FARREY
492 OLD ASHBY RD
MASON, NH 03048
Phone 603-878-1622
Manager: MICHAEL FARREY
492 OLD ASHBY RD
MASON, NH 03048
Phone 603-878-1622

Additional Remarks

A52-15 200 FT HILL 1 1/2 MI NW; 38 FT HILL 1/2 MI E.
FOR CD CTC BOSTON APCH AT 603-594-5551.

Instrument Procedures

There are no published instrument procedures at NH76.

Some nearby airports with instrument procedures:

KFIT - Fitchburg Municipal Airport (11 nm S)
KAFN - Jaffrey Airport-Silver Ranch (11 nm NW)
KASH - Boire Field Airport (12 nm E)
KGDM - Gardner Municipal Airport (15 nm SW)
KMHT - Manchester Airport (20 nm NE)
6B6 - Minute Man Air Field (20 nm SE)
 
Loc | Ops | Rwys | IFR | FBO | Links
Com | Nav | Svcs | Stats | Notes
Area around NH76 (Mason Airfield)
 
Road maps at: MapQuest Bing Google
 
Aerial photo
WARNING: Photo may not be current or correct
Aerial photo of NH76 (Mason Airfield)
Photo by Bruce Vinal, Aerial Perspectives
Photo taken 20-Oct-2010
looking northwest.

Do you have a better or more recent aerial photo of Mason Airfield that you would like to share? If so, please send us your photo.

 
Sectional chart

 
Airport distance calculator
Flying to Mason Airfield? Find the distance to fly.

From to NH76

Sunrise and sunset
Times for 22-Sep-2020
 Local
(UTC-4)
 Zulu
(UTC)
Morning civil twilight06:0810:08
Sunrise06:3610:36
Sunset18:4322:43
Evening civil twilight19:1123:11

Current date and time
Zulu (UTC)  23-Sep-2020 02:18:02
Local (UTC-4)  22-Sep-2020 22:18:02
 
METAR
KAFN 
10nm NW 
230152Z AUTO VRB05KT 10SM CLR 13/03 A2983 RMK AO2 SLP106 T01280028
KFIT 
11nm S 
230152Z AUTO 32011KT 10SM CLR 14/02 A2979 RMK AO2 SLP089 T01440022
KASH 
12nm E 
230156Z AUTO 31013KT 10SM CLR 16/04 A2977 RMK AO2 SLP086 T01560044
KMHT 
20nm NE 
230153Z 34014G22KT 10SM BKN250 16/04 A2976 RMK AO2 SLP089 T01610039
TAF
KMHT 
20nm NE 
221956Z 2220/2318 33013G21KT P6SM BKN250 FM222200 33012G18KT P6SM BKN250 FM230300 32010G15KT P6SM SCT250 FM231400 30012KT P6SM FEW050
NOTAMs
Click for the latest NOTAMs
NOTAMs are issued by the DoD/FAA and will open in a separate window not controlled by AirNav.

 

 
 

Would you like to see your business listed on this page?

 If your business provides an interesting product or service to pilots, flight crews, aircraft, or users of the Mason Airfield, you should consider listing it here.  To start the listing process, click on the button below
 
Add a business
 

Other Pages about Mason Airfield

Update a link
 
Copyright © AirNav, LLC. All rights reserved. Privacy Policy  Contact